Time;durP1;ratioP1;P1;durP2;ratioP2;P2;SDS_P1;SDS_P2;PMS_P1;PMS_P2;Temp;Humidity;BMP_temperature;BMP_pressure;BME280_temperature;BME280_humidity;BME280_pressure;Samples;Min_cycle;Max_cycle;Signal;HPM_P1;HPM_P2
2022/08/17 00:00:09;;;;;;;16.40;13.30;;;;;;;;;;4824412;29;20073;-46
2022/08/17 00:03:15;;;;;;;19.70;17.35;;;;;;;;;;4824400;29;20582;-50
2022/08/17 00:06:05;;;;;;;16.23;14.52;;;;;;;;;;4824364;29;20075;-51
2022/08/17 00:08:37;;;;;;;22.65;20.35;;;;;;;;;;4824176;29;20099;-49
2022/08/17 00:11:09;;;;;;;15.80;14.20;;;;;;;;;;4824053;29;20757;-49
2022/08/17 00:13:40;;;;;;;34.28;25.70;;;;;;;;;;4824193;29;20638;-50
2022/08/17 00:16:30;;;;;;;20.42;14.35;;;;;;;;;;4824264;29;20050;-49
2022/08/17 00:19:21;;;;;;;16.65;14.95;;;;;;;;;;4828020;29;20042;-49
2022/08/17 00:21:51;;;;;;;16.58;14.90;;;;;;;;;;4842573;29;20401;-49
2022/08/17 00:24:38;;;;;;;15.15;13.65;;;;;;;;;;4829541;29;20058;-49
2022/08/17 00:27:05;;;;;;;18.02;15.90;;;;;;;;;;4823906;29;20125;-50
2022/08/17 00:29:32;;;;;;;16.20;14.50;;;;;;;;;;4823812;29;20125;-49
2022/08/17 00:32:02;;;;;;;15.80;14.20;;;;;;;;;;4823873;29;20038;-52
2022/08/17 00:34:49;;;;;;;599.58;365.73;;;;;;;;;;4823982;29;20483;-50
2022/08/17 00:37:17;;;;;;;110.20;64.38;;;;;;;;;;4823786;29;20046;-49
2022/08/17 00:39:45;;;;;;;27.00;20.45;;;;;;;;;;4823978;29;20042;-47
2022/08/17 00:42:20;;;;;;;17.02;15.23;;;;;;;;;;4824097;29;20061;-50
2022/08/17 00:44:47;;;;;;;16.92;14.25;;;;;;;;;;4823954;29;20093;-45
2022/08/17 00:47:15;;;;;;;14.75;13.32;;;;;;;;;;4824014;29;20047;-48
2022/08/17 00:49:43;;;;;;;15.73;13.95;;;;;;;;;;4823807;29;20050;-53
2022/08/17 00:52:18;;;;;;;15.25;13.38;;;;;;;;;;4823568;29;20395;-50
2022/08/17 00:54:51;;;;;;;18.60;16.75;;;;;;;;;;4823631;29;20056;-49
2022/08/17 00:57:35;;;;;;;14.90;13.25;;;;;;;;;;4823604;29;20062;-48
2022/08/17 01:00:18;;;;;;;18.35;15.77;;;;;;;;;;4823564;29;20080;-46
2022/08/17 01:02:47;;;;;;;19.48;17.27;;;;;;;;;;4823208;29;20564;-49
2022/08/17 01:05:29;;;;;;;19.52;13.13;;;;;;;;;;4823373;29;20079;-50
2022/08/17 01:07:59;;;;;;;57.00;37.15;;;;;;;;;;4823110;29;20047;-48
2022/08/17 01:10:34;;;;;;;20.00;17.63;;;;;;;;;;4823662;29;20046;-47
2022/08/17 01:13:25;;;;;;;20.75;17.45;;;;;;;;;;4822402;29;20389;-50
2022/08/17 01:16:03;;;;;;;15.13;12.82;;;;;;;;;;4823462;29;20096;-52
2022/08/17 01:18:33;;;;;;;21.40;19.02;;;;;;;;;;4823363;29;20046;-47
2022/08/17 01:21:21;;;;;;;17.27;15.57;;;;;;;;;;4823043;29;20043;-47
2022/08/17 01:23:49;;;;;;;138.52;81.72;;;;;;;;;;4822811;29;20054;-52
2022/08/17 01:26:17;;;;;;;146.63;79.75;;;;;;;;;;4823200;29;20092;-48
2022/08/17 01:28:45;;;;;;;26.95;21.40;;;;;;;;;;4823225;29;20051;-48
2022/08/17 01:31:24;;;;;;;16.92;14.40;;;;;;;;;;4822996;29;20062;-51
2022/08/17 01:33:51;;;;;;;21.10;18.38;;;;;;;;;;4822509;29;20400;-51
2022/08/17 01:36:19;;;;;;;17.98;14.15;;;;;;;;;;4823033;29;20141;-51
2022/08/17 01:38:47;;;;;;;14.63;13.10;;;;;;;;;;4823212;29;20046;-48
2022/08/17 01:41:15;;;;;;;19.80;17.52;;;;;;;;;;4822897;29;20515;-48
2022/08/17 01:43:47;;;;;;;16.85;15.10;;;;;;;;;;4822883;29;20058;-47
2022/08/17 01:46:22;;;;;;;14.55;13.15;;;;;;;;;;4823219;29;20106;-51
2022/08/17 01:48:50;;;;;;;33.58;24.98;;;;;;;;;;4822741;29;20470;-47
2022/08/17 01:51:20;;;;;;;23.85;18.90;;;;;;;;;;4823023;29;20050;-47
2022/08/17 01:53:52;;;;;;;16.80;13.43;;;;;;;;;;4823229;29;20046;-51
2022/08/17 01:56:23;;;;;;;18.70;15.07;;;;;;;;;;4822347;29;20482;-50
2022/08/17 01:58:51;;;;;;;14.65;13.20;;;;;;;;;;4822055;29;20404;-50
2022/08/17 02:01:21;;;;;;;14.35;12.77;;;;;;;;;;4822723;29;20074;-52
2022/08/17 02:03:49;;;;;;;16.40;14.80;;;;;;;;;;4823011;29;20042;-46
2022/08/17 02:06:25;;;;;;;16.35;14.13;;;;;;;;;;4822656;29;20056;-51
2022/08/17 02:08:54;;;;;;;16.23;14.63;;;;;;;;;;4822857;29;20038;-47
2022/08/17 02:11:30;;;;;;;17.17;14.63;;;;;;;;;;4822225;29;20411;-49
2022/08/17 02:13:58;;;;;;;16.05;13.55;;;;;;;;;;4822844;29;20042;-49
2022/08/17 02:16:35;;;;;;;18.08;16.27;;;;;;;;;;4821385;29;20111;-46
2022/08/17 02:19:07;;;;;;;26.17;21.17;;;;;;;;;;4825053;29;20515;-46
2022/08/17 02:21:36;;;;;;;15.32;13.57;;;;;;;;;;4840666;29;20060;-48
2022/08/17 02:24:07;;;;;;;14.43;13.05;;;;;;;;;;4840601;29;20085;-46
2022/08/17 02:26:34;;;;;;;17.45;15.70;;;;;;;;;;4840692;29;20133;-49
2022/08/17 02:29:02;;;;;;;48.80;31.98;;;;;;;;;;4840800;29;20506;-48
2022/08/17 02:31:30;;;;;;;21.83;19.25;;;;;;;;;;4840373;29;20502;-50
2022/08/17 02:33:57;;;;;;;20.70;16.10;;;;;;;;;;4840565;29;20106;-46
2022/08/17 02:36:31;;;;;;;;;;;;;;;;;;4840952;29;20057;-47
2022/08/17 02:39:00;;;;;;;17.08;15.38;;;;;;;;;;4840732;29;19932;-47
2022/08/17 02:41:27;;;;;;;15.73;14.18;;;;;;;;;;4840237;29;20042;-47
2022/08/17 02:43:55;;;;;;;16.05;14.13;;;;;;;;;;4840519;29;20457;-48
2022/08/17 02:46:22;;;;;;;18.30;15.60;;;;;;;;;;4841097;29;20448;-46
2022/08/17 02:48:49;;;;;;;23.45;18.77;;;;;;;;;;4843987;29;20046;-48
2022/08/17 02:51:17;;;;;;;19.02;17.02;;;;;;;;;;4843615;29;20514;-50
2022/08/17 02:53:44;;;;;;;40.05;29.17;;;;;;;;;;4843819;29;20045;-45
2022/08/17 02:56:11;;;;;;;32.78;26.27;;;;;;;;;;4843681;29;20102;-50
2022/08/17 02:58:38;;;;;;;21.90;18.33;;;;;;;;;;4843680;29;20042;-48
2022/08/17 03:01:07;;;;;;;19.67;17.67;;;;;;;;;;4843577;29;20058;-46
2022/08/17 03:03:36;;;;;;;26.85;22.40;;;;;;;;;;4843436;29;20124;-48
2022/08/17 03:06:04;;;;;;;20.52;17.73;;;;;;;;;;4843473;29;20054;-46
2022/08/17 03:08:31;;;;;;;42.88;29.27;;;;;;;;;;4843290;29;20502;-46
2022/08/17 03:10:59;;;;;;;28.60;24.35;;;;;;;;;;4843569;29;20121;-50
2022/08/17 03:13:29;;;;;;;18.88;16.10;;;;;;;;;;4843031;29;20452;-45
2022/08/17 03:15:57;;;;;;;20.52;18.27;;;;;;;;;;4843422;29;20038;-46
2022/08/17 03:18:26;;;;;;;16.30;14.75;;;;;;;;;;4839840;29;20046;-48
2022/08/17 03:20:56;;;;;;;15.52;14.02;;;;;;;;;;4826766;29;20042;-47
2022/08/17 03:23:24;;;;;;;19.92;17.85;;;;;;;;;;4824923;29;20196;-47
2022/08/17 03:25:54;;;;;;;16.50;14.95;;;;;;;;;;4824134;29;20511;-48
2022/08/17 03:28:22;;;;;;;15.10;13.60;;;;;;;;;;4825012;29;20065;-48
2022/08/17 03:30:51;;;;;;;38.92;26.20;;;;;;;;;;4824952;29;20125;-47
2022/08/17 03:33:19;;;;;;;22.15;18.95;;;;;;;;;;4824719;29;20049;-47
2022/08/17 03:35:47;;;;;;;17.90;16.00;;;;;;;;;;4824807;29;20511;-49
2022/08/17 03:38:15;;;;;;;18.83;16.67;;;;;;;;;;4824813;29;20042;-46
2022/08/17 03:40:48;;;;;;;19.67;17.55;;;;;;;;;;4824854;29;20092;-46
2022/08/17 03:43:28;;;;;;;16.08;14.48;;;;;;;;;;4824587;29;20179;-45
2022/08/17 03:57:27;;;;;;;19.30;17.30;;;;;;;;;;4823570;29;20412;-45
2022/08/17 03:59:56;;;;;;;17.25;15.10;;;;;;;;;;4824372;29;20050;-47
2022/08/17 04:02:28;;;;;;;16.95;14.68;;;;;;;;;;4824471;29;20053;-46
2022/08/17 04:04:56;;;;;;;17.00;15.20;;;;;;;;;;4824475;29;20042;-47
2022/08/17 04:07:26;;;;;;;15.90;14.40;;;;;;;;;;4824071;29;20038;-48
2022/08/17 04:09:54;;;;;;;22.88;18.60;;;;;;;;;;4824469;29;20419;-47
2022/08/17 04:12:22;;;;;;;16.85;15.15;;;;;;;;;;4824164;29;20053;-45
2022/08/17 04:14:49;;;;;;;118.65;81.22;;;;;;;;;;4824211;29;20046;-46
2022/08/17 04:17:22;;;;;;;44.20;34.25;;;;;;;;;;4823957;29;20039;-46
2022/08/17 04:19:49;;;;;;;22.15;19.75;;;;;;;;;;4832185;29;20054;-45
2022/08/17 04:22:17;;;;;;;20.75;18.55;;;;;;;;;;4842056;29;20050;-48
2022/08/17 04:25:14;;;;;;;20.10;17.48;;;;;;;;;;4841818;29;20081;-46
2022/08/17 04:27:41;;;;;;;18.83;16.98;;;;;;;;;;4842110;29;20046;-50
2022/08/17 04:30:09;;;;;;;16.75;15.05;;;;;;;;;;4841900;29;20067;-48
2022/08/17 04:32:51;;;;;;;17.95;16.05;;;;;;;;;;4842062;29;20064;-47
2022/08/17 04:35:43;;;;;;;18.67;16.73;;;;;;;;;;4841495;29;20054;-49
2022/08/17 04:38:23;;;;;;;18.70;16.90;;;;;;;;;;4841730;29;20042;-49
2022/08/17 04:43:38;;;;;;;60.72;44.05;;;;;;;;;;4841554;29;20046;-46
2022/08/17 04:46:13;;;;;;;35.72;28.50;;;;;;;;;;4841466;29;20410;-46
2022/08/17 04:48:44;;;;;;;23.10;19.33;;;;;;;;;;4841681;29;20094;-46
2022/08/17 04:51:15;;;;;;;20.23;15.60;;;;;;;;;;4841420;29;20042;-48
2022/08/17 04:53:49;;;;;;;19.73;14.07;;;;;;;;;;4841481;29;20065;-47
2022/08/17 04:56:24;;;;;;;62.50;46.90;;;;;;;;;;4841476;29;20499;-48
2022/08/17 04:58:57;;;;;;;18.50;16.52;;;;;;;;;;4841487;29;20077;-46
2022/08/17 05:01:30;;;;;;;18.23;16.35;;;;;;;;;;4824904;29;20057;-46
2022/08/17 05:04:00;;;;;;;16.63;15.00;;;;;;;;;;4823583;29;20057;-44
2022/08/17 05:06:48;;;;;;;13.95;12.68;;;;;;;;;;4822968;29;20046;-47
2022/08/17 05:09:17;;;;;;;14.02;12.48;;;;;;;;;;4822637;29;20121;-45
2022/08/17 05:11:46;;;;;;;23.30;17.52;;;;;;;;;;4823187;29;20133;-47
2022/08/17 05:14:13;;;;;;;22.38;17.00;;;;;;;;;;4823247;29;20079;-48
2022/08/17 05:16:41;;;;;;;13.93;12.45;;;;;;;;;;4823385;29;20057;-45
2022/08/17 05:19:08;;;;;;;15.70;11.23;;;;;;;;;;4821552;29;20145;-47
2022/08/17 05:21:35;;;;;;;13.65;10.80;;;;;;;;;;4822736;29;20074;-46
2022/08/17 05:24:03;;;;;;;14.65;11.35;;;;;;;;;;4822970;29;20050;-46
2022/08/17 05:26:51;;;;;;;13.50;11.30;;;;;;;;;;4823080;29;20499;-46
2022/08/17 05:29:18;;;;;;;21.70;16.63;;;;;;;;;;4822619;29;20051;-50
2022/08/17 05:31:46;;;;;;;13.82;12.00;;;;;;;;;;4822754;29;20411;-46
2022/08/17 05:34:13;;;;;;;11.82;9.93;;;;;;;;;;4822969;29;20099;-46
2022/08/17 05:36:41;;;;;;;13.02;9.50;;;;;;;;;;4822394;29;20517;-51
2022/08/17 05:39:13;;;;;;;10.75;8.15;;;;;;;;;;4821695;29;20046;-49
2022/08/17 05:41:45;;;;;;;11.07;8.48;;;;;;;;;;4822367;29;20050;-45
2022/08/17 05:44:14;;;;;;;9.18;8.23;;;;;;;;;;4821746;29;20073;-46
2022/08/17 05:46:47;;;;;;;8.98;8.07;;;;;;;;;;4822343;29;20050;-47
2022/08/17 05:49:20;;;;;;;11.27;7.50;;;;;;;;;;4822238;29;20058;-48
2022/08/17 05:52:02;;;;;;;10.20;7.13;;;;;;;;;;4823035;29;20452;-48
2022/08/17 05:54:44;;;;;;;8.40;7.07;;;;;;;;;;4822740;29;20070;-47
2022/08/17 05:57:30;;;;;;;10.07;6.63;;;;;;;;;;4822618;29;20051;-48
2022/08/17 06:00:15;;;;;;;8.95;6.97;;;;;;;;;;4822851;29;20049;-46
2022/08/17 06:02:53;;;;;;;7.90;7.00;;;;;;;;;;4822242;29;20046;-45
2022/08/17 06:05:39;;;;;;;12.70;7.30;;;;;;;;;;4821924;29;20101;-46
2022/08/17 06:08:22;;;;;;;7.55;6.75;;;;;;;;;;4822196;29;20061;-50
2022/08/17 06:11:08;;;;;;;8.15;6.80;;;;;;;;;;4822483;29;20043;-45
2022/08/17 06:13:43;;;;;;;8.65;6.88;;;;;;;;;;4821962;29;20587;-45
2022/08/17 06:16:19;;;;;;;10.88;7.03;;;;;;;;;;4822095;29;20053;-46
2022/08/17 06:19:12;;;;;;;10.20;6.55;;;;;;;;;;4824575;29;20050;-47
2022/08/17 06:21:43;;;;;;;7.13;6.25;;;;;;;;;;4826499;29;20808;-47
2022/08/17 06:24:45;;;;;;;9.02;6.60;;;;;;;;;;4844190;29;20450;-47
2022/08/17 06:27:21;;;;;;;9.63;6.55;;;;;;;;;;4843502;29;20414;-46
2022/08/17 06:30:12;;;;;;;9.68;6.20;;;;;;;;;;4827197;29;20428;-47
2022/08/17 06:32:46;;;;;;;9.90;6.90;;;;;;;;;;4843890;29;20079;-52
2022/08/17 06:35:17;;;;;;;8.32;6.60;;;;;;;;;;4843995;29;20078;-47
2022/08/17 06:38:09;;;;;;;11.18;6.95;;;;;;;;;;4826934;29;20053;-46
2022/08/17 06:41:33;;;;;;;7.30;6.53;;;;;;;;;;4844109;29;20046;-45
2022/08/17 06:44:16;;;;;;;7.78;6.43;;;;;;;;;;4830780;29;20118;-46
2022/08/17 06:47:12;;;;;;;7.15;6.22;;;;;;;;;;4843630;29;20054;-45
2022/08/17 06:49:48;;;;;;;8.32;6.05;;;;;;;;;;4843431;29;20042;-49
2022/08/17 06:52:27;;;;;;;7.32;6.50;;;;;;;;;;4843415;29;20048;-47
2022/08/17 06:55:25;;;;;;;8.50;6.93;;;;;;;;;;4843226;29;20086;-50
2022/08/17 06:58:00;;;;;;;11.63;6.75;;;;;;;;;;4843602;29;20511;-45
2022/08/17 07:00:44;;;;;;;10.38;8.00;;;;;;;;;;4843443;29;20141;-47
2022/08/17 07:03:17;;;;;;;10.65;9.30;;;;;;;;;;4843159;29;20129;-49
2022/08/17 07:05:56;;;;;;;11.02;6.78;;;;;;;;;;4843523;29;20102;-48
2022/08/17 07:08:48;;;;;;;7.65;6.85;;;;;;;;;;4843458;29;20049;-46
2022/08/17 07:11:24;;;;;;;7.30;6.40;;;;;;;;;;4843497;29;20050;-45
2022/08/17 07:14:23;;;;;;;11.90;6.45;;;;;;;;;;4843377;29;20050;-47
2022/08/17 07:16:54;;;;;;;8.50;6.55;;;;;;;;;;4843464;29;20056;-49
2022/08/17 07:19:30;;;;;;;7.82;7.03;;;;;;;;;;4838000;29;20129;-47
2022/08/17 07:22:29;;;;;;;9.57;6.72;;;;;;;;;;4824473;29;20057;-46
2022/08/17 07:25:18;;;;;;;7.80;6.28;;;;;;;;;;4821599;29;20062;-46
2022/08/17 07:27:50;;;;;;;9.23;6.75;;;;;;;;;;4824523;29;20042;-50
2022/08/17 07:30:25;;;;;;;8.25;6.70;;;;;;;;;;4824372;29;20058;-48
2022/08/17 07:32:58;;;;;;;10.10;7.28;;;;;;;;;;4823597;29;20066;-49
2022/08/17 07:35:29;;;;;;;8.70;6.53;;;;;;;;;;4824651;29;20085;-46
2022/08/17 07:38:16;;;;;;;9.38;7.30;;;;;;;;;;4824386;29;20050;-45
2022/08/17 07:41:01;;;;;;;11.40;6.78;;;;;;;;;;4824047;29;20070;-46
2022/08/17 07:43:38;;;;;;;9.27;7.20;;;;;;;;;;4824580;29;20050;-46
2022/08/17 07:49:01;;;;;;;8.55;6.72;;;;;;;;;;4824222;29;20142;-46
2022/08/17 07:51:31;;;;;;;10.65;6.53;;;;;;;;;;4824673;29;20099;-46
2022/08/17 07:54:02;;;;;;;11.43;7.00;;;;;;;;;;4824357;29;20054;-51
2022/08/17 07:56:55;;;;;;;9.48;7.40;;;;;;;;;;4824062;29;20055;-52
2022/08/17 07:59:27;;;;;;;8.05;6.75;;;;;;;;;;4824082;29;20046;-47
2022/08/17 08:02:05;;;;;;;10.65;6.70;;;;;;;;;;4824476;29;20126;-46
2022/08/17 08:04:45;;;;;;;10.20;7.25;;;;;;;;;;4824041;29;20050;-48
2022/08/17 08:07:38;;;;;;;7.90;6.90;;;;;;;;;;4823695;29;20058;-44
2022/08/17 08:10:24;;;;;;;7.50;6.70;;;;;;;;;;4824117;29;20050;-48
2022/08/17 08:13:06;;;;;;;11.40;7.57;;;;;;;;;;4824319;29;20091;-46
2022/08/17 08:15:47;;;;;;;9.35;7.13;;;;;;;;;;4824088;29;20042;-51
2022/08/17 08:18:29;;;;;;;8.57;6.50;;;;;;;;;;4824172;29;20100;-46
2022/08/17 08:21:41;;;;;;;8.88;6.60;;;;;;;;;;4804631;29;20162;-49
2022/08/17 08:24:18;;;;;;;8.00;6.70;;;;;;;;;;4805647;29;20086;-45
2022/08/17 08:27:05;;;;;;;9.88;6.75;;;;;;;;;;4805591;29;20055;-44
2022/08/17 08:29:45;;;;;;;9.73;6.97;;;;;;;;;;4805645;29;20508;-44
2022/08/17 08:32:19;;;;;;;10.80;7.35;;;;;;;;;;4805547;29;20043;-47
2022/08/17 08:35:30;;;;;;;9.77;7.15;;;;;;;;;;4805551;29;20507;-45
2022/08/17 08:38:13;;;;;;;10.70;6.80;;;;;;;;;;4805517;29;20565;-45
2022/08/17 08:40:55;;;;;;;10.48;7.25;;;;;;;;;;4805233;29;20763;-45
2022/08/17 08:43:44;;;;;;;10.93;6.35;;;;;;;;;;4805544;29;20591;-45
2022/08/17 08:46:30;;;;;;;8.65;7.43;;;;;;;;;;4805065;29;20050;-47
2022/08/17 08:49:00;;;;;;;11.88;8.02;;;;;;;;;;4804965;29;20050;-45
2022/08/17 08:51:54;;;;;;;8.18;7.22;;;;;;;;;;4804887;29;20050;-45
2022/08/17 08:54:46;;;;;;;7.90;6.75;;;;;;;;;;4805128;29;20043;-46
2022/08/17 08:57:29;;;;;;;9.40;6.68;;;;;;;;;;4805116;29;20131;-46
2022/08/17 09:00:14;;;;;;;9.10;6.97;;;;;;;;;;4805155;29;20118;-46
2022/08/17 09:03:03;;;;;;;10.57;6.88;;;;;;;;;;4805069;29;20047;-45
2022/08/17 09:05:52;;;;;;;9.30;7.15;;;;;;;;;;4804981;29;20050;-47
2022/08/17 09:08:43;;;;;;;9.90;6.65;;;;;;;;;;4805101;29;20047;-46
2022/08/17 09:11:21;;;;;;;8.68;7.05;;;;;;;;;;4805118;29;20054;-52
2022/08/17 09:14:09;;;;;;;9.38;7.03;;;;;;;;;;4805143;29;20058;-48
2022/08/17 09:17:32;;;;;;;9.00;6.90;;;;;;;;;;4804861;29;20126;-50
2022/08/17 09:20:10;;;;;;;8.60;6.80;;;;;;;;;;4811970;29;20065;-52
2022/08/17 09:22:59;;;;;;;10.82;6.40;;;;;;;;;;4840665;29;20056;-46
2022/08/17 09:25:41;;;;;;;10.85;6.80;;;;;;;;;;4841288;29;20045;-46
2022/08/17 09:28:19;;;;;;;12.70;7.22;;;;;;;;;;4841181;29;20061;-47
2022/08/17 09:30:52;;;;;;;9.55;6.47;;;;;;;;;;4840997;29;20038;-46
2022/08/17 09:33:27;;;;;;;8.95;6.35;;;;;;;;;;4840738;29;20042;-45
2022/08/17 09:36:10;;;;;;;9.95;6.75;;;;;;;;;;4840951;29;20477;-46
2022/08/17 09:38:52;;;;;;;8.25;6.57;;;;;;;;;;4841120;29;20044;-46
2022/08/17 09:41:31;;;;;;;9.07;7.20;;;;;;;;;;4840537;29;20056;-49
2022/08/17 09:44:20;;;;;;;7.47;6.68;;;;;;;;;;4840965;29;20053;-45
2022/08/17 09:46:57;;;;;;;8.48;6.88;;;;;;;;;;4840710;29;20090;-46
2022/08/17 09:49:33;;;;;;;7.20;6.25;;;;;;;;;;4841174;29;20050;-51
2022/08/17 09:52:20;;;;;;;8.85;6.10;;;;;;;;;;4840918;29;20463;-47
2022/08/17 09:54:52;;;;;;;7.18;5.88;;;;;;;;;;4840792;29;20574;-45
2022/08/17 09:57:59;;;;;;;10.45;6.80;;;;;;;;;;4844212;29;20094;-46
2022/08/17 10:00:34;;;;;;;7.60;6.50;;;;;;;;;;4844559;29;20049;-45
2022/08/17 10:03:24;;;;;;;8.38;5.90;;;;;;;;;;4812319;29;20061;-49
2022/08/17 10:06:14;;;;;;;10.35;7.35;;;;;;;;;;4825983;29;20106;-47
2022/08/17 10:09:06;;;;;;;8.77;6.60;;;;;;;;;;4825635;29;20043;-45
2022/08/17 10:12:15;;;;;;;9.75;6.13;;;;;;;;;;4826317;29;20077;-46
2022/08/17 10:15:06;;;;;;;8.77;6.38;;;;;;;;;;4823448;29;20092;-45
2022/08/17 10:17:54;;;;;;;9.73;6.07;;;;;;;;;;4826042;29;20046;-47
2022/08/17 10:20:28;;;;;;;10.95;6.38;;;;;;;;;;4838223;29;20700;-45
2022/08/17 10:26:13;;;;;;;8.98;6.45;;;;;;;;;;4825791;29;20059;-48
2022/08/17 10:28:48;;;;;;;8.25;5.60;;;;;;;;;;4825829;29;20507;-45
2022/08/17 10:31:26;;;;;;;8.80;6.45;;;;;;;;;;4825616;29;20080;-47
2022/08/17 10:34:28;;;;;;;12.10;6.40;;;;;;;;;;4825960;29;20074;-46
2022/08/17 10:37:30;;;;;;;8.55;6.05;;;;;;;;;;4825807;29;20046;-47
2022/08/17 10:40:09;;;;;;;8.48;5.53;;;;;;;;;;4825437;29;20051;-50
2022/08/17 10:42:47;;;;;;;9.82;5.85;;;;;;;;;;4825142;29;20054;-47
2022/08/17 10:45:25;;;;;;;8.68;6.05;;;;;;;;;;4825304;29;20052;-46
2022/08/17 10:48:39;;;;;;;9.70;6.30;;;;;;;;;;4825331;29;20050;-46
2022/08/17 10:51:11;;;;;;;9.07;5.88;;;;;;;;;;4825426;29;20039;-46
2022/08/17 10:53:42;;;;;;;8.38;6.03;;;;;;;;;;4825270;29;20054;-45
2022/08/17 10:56:20;;;;;;;8.00;5.15;;;;;;;;;;4825462;29;20042;-46
2022/08/17 10:59:00;;;;;;;9.15;5.65;;;;;;;;;;4825033;29;20047;-46
2022/08/17 11:01:33;;;;;;;7.82;6.53;;;;;;;;;;4824872;29;20158;-46
2022/08/17 11:04:20;;;;;;;9.15;6.10;;;;;;;;;;4825237;29;20567;-48
2022/08/17 11:07:00;;;;;;;8.85;5.63;;;;;;;;;;4823929;29;20078;-47
2022/08/17 11:10:05;;;;;;;10.02;5.53;;;;;;;;;;4824978;29;20051;-51
2022/08/17 11:12:43;;;;;;;7.38;5.53;;;;;;;;;;4825317;29;20050;-48
2022/08/17 11:15:27;;;;;;;11.60;6.18;;;;;;;;;;4824570;29;20050;-47
2022/08/17 11:18:30;;;;;;;9.32;5.60;;;;;;;;;;4825043;29;20059;-46
2022/08/17 11:21:12;;;;;;;6.80;5.50;;;;;;;;;;4841551;29;20117;-45
2022/08/17 11:23:50;;;;;;;9.75;5.78;;;;;;;;;;4842725;29;20141;-44
2022/08/17 11:26:28;;;;;;;10.27;5.35;;;;;;;;;;4842881;29;20400;-46
2022/08/17 11:29:00;;;;;;;7.35;5.03;;;;;;;;;;4842821;29;20086;-48
2022/08/17 11:31:38;;;;;;;7.78;4.90;;;;;;;;;;4842968;29;20071;-45
2022/08/17 11:34:17;;;;;;;9.95;5.00;;;;;;;;;;4842692;29;20503;-46
2022/08/17 11:36:47;;;;;;;10.60;5.30;;;;;;;;;;4842863;29;20053;-46
2022/08/17 11:39:46;;;;;;;6.30;5.25;;;;;;;;;;4842884;29;20038;-48
2022/08/17 11:42:38;;;;;;;10.50;5.65;;;;;;;;;;4822020;29;20096;-48
2022/08/17 11:45:29;;;;;;;9.55;5.63;;;;;;;;;;4842751;29;20034;-45
2022/08/17 11:53:55;;;;;;;8.13;5.35;;;;;;;;;;4842771;29;20429;-45
2022/08/17 11:56:42;;;;;;;6.70;4.72;;;;;;;;;;4842432;29;20530;-46
2022/08/17 11:59:35;;;;;;;7.97;5.28;;;;;;;;;;4842409;29;20097;-44
2022/08/17 12:02:03;;;;;;;;;;;;;;;;;;4840627;29;20088;-49
2022/08/17 12:04:34;;;;;;;10.00;5.00;;;;;;;;;;4842862;29;19924;-45
2022/08/17 12:07:07;;;;;;;8.68;4.95;;;;;;;;;;4842576;29;20077;-47
2022/08/17 12:09:40;;;;;;;7.00;5.50;;;;;;;;;;4842584;29;20114;-48
2022/08/17 12:12:19;;;;;;;7.00;5.45;;;;;;;;;;4842367;29;20038;-49
2022/08/17 12:14:50;;;;;;;9.20;4.72;;;;;;;;;;4840643;29;20574;-44
2022/08/17 12:17:37;;;;;;;7.28;5.03;;;;;;;;;;4841984;29;20045;-45
2022/08/17 12:20:23;;;;;;;6.53;4.95;;;;;;;;;;4831152;29;20051;-50
2022/08/17 12:22:55;;;;;;;19.55;14.48;;;;;;;;;;4823697;29;20412;-48
2022/08/17 12:25:34;;;;;;;17.45;11.82;;;;;;;;;;4824082;29;20085;-46
2022/08/17 12:28:02;;;;;;;10.80;5.72;;;;;;;;;;4823989;29;20499;-45
2022/08/17 12:30:34;;;;;;;10.77;5.07;;;;;;;;;;4824071;29;20058;-45
2022/08/17 12:33:09;;;;;;;9.10;5.00;;;;;;;;;;4823769;29;20041;-45
2022/08/17 12:35:37;;;;;;;8.50;4.57;;;;;;;;;;4823602;29;20081;-44
2022/08/17 12:38:09;;;;;;;12.57;5.10;;;;;;;;;;4822727;29;20046;-45
2022/08/17 12:40:57;;;;;;;10.18;5.15;;;;;;;;;;4822488;29;20049;-47
2022/08/17 12:43:29;;;;;;;6.10;4.80;;;;;;;;;;4822517;29;20054;-44
2022/08/17 12:46:00;;;;;;;8.65;4.70;;;;;;;;;;4823501;29;20038;-44
2022/08/17 12:48:41;;;;;;;9.20;5.00;;;;;;;;;;4821291;29;20050;-42
2022/08/17 12:51:27;;;;;;;6.65;5.03;;;;;;;;;;4821851;29;20078;-47
2022/08/17 12:53:56;;;;;;;9.23;4.55;;;;;;;;;;4804908;29;20051;-45
2022/08/17 12:56:24;;;;;;;8.77;5.05;;;;;;;;;;4804753;29;20526;-47
2022/08/17 12:58:53;;;;;;;8.27;4.60;;;;;;;;;;4805138;29;20473;-45
2022/08/17 13:01:22;;;;;;;9.82;4.70;;;;;;;;;;4804726;29;20461;-45
2022/08/17 13:03:52;;;;;;;15.32;11.13;;;;;;;;;;4804218;29;20086;-45
2022/08/17 13:06:30;;;;;;;7.85;4.90;;;;;;;;;;4804963;29;20138;-45
2022/08/17 13:09:09;;;;;;;7.30;4.70;;;;;;;;;;4829944;29;20526;-41
2022/08/17 13:11:52;;;;;;;6.40;4.80;;;;;;;;;;4840996;29;20125;-47
2022/08/17 13:14:20;;;;;;;6.82;4.60;;;;;;;;;;4809096;29;20563;-45
2022/08/17 13:16:52;;;;;;;7.63;4.25;;;;;;;;;;4823187;29;20050;-46
2022/08/17 13:19:31;;;;;;;13.25;4.57;;;;;;;;;;4824233;29;20117;-42
2022/08/17 13:22:11;;;;;;;9.48;4.47;;;;;;;;;;4836077;29;20050;-51
2022/08/17 13:25:02;;;;;;;6.88;4.07;;;;;;;;;;4824209;29;20068;-46
2022/08/17 13:27:32;;;;;;;16.38;11.65;;;;;;;;;;4828416;29;20135;-47
2022/08/17 13:30:06;;;;;;;6.50;4.35;;;;;;;;;;4822317;29;20078;-49
2022/08/17 13:32:40;;;;;;;7.93;4.80;;;;;;;;;;4821856;29;20073;-45
2022/08/17 13:35:29;;;;;;;9.07;4.63;;;;;;;;;;4821879;29;20129;-45
2022/08/17 13:38:11;;;;;;;8.15;4.50;;;;;;;;;;4822788;29;20461;-45
2022/08/17 13:40:51;;;;;;;6.13;3.85;;;;;;;;;;4822612;29;20520;-46
2022/08/17 13:43:39;;;;;;;8.60;4.18;;;;;;;;;;4822632;29;20078;-45
2022/08/17 13:46:10;;;;;;;8.55;4.22;;;;;;;;;;4822615;29;20050;-47
2022/08/17 13:48:38;;;;;;;8.02;4.38;;;;;;;;;;4822584;29;20137;-46
2022/08/17 13:51:18;;;;;;;40.83;24.75;;;;;;;;;;4823034;29;20035;-42
2022/08/17 13:53:53;;;;;;;10.80;4.43;;;;;;;;;;4820416;29;20070;-46
2022/08/17 13:56:37;;;;;;;8.68;4.25;;;;;;;;;;4822381;29;20103;-46
2022/08/17 13:59:17;;;;;;;5.65;4.47;;;;;;;;;;4822311;29;20050;-45
2022/08/17 14:02:07;;;;;;;8.15;4.57;;;;;;;;;;4839053;29;20402;-45
2022/08/17 14:04:35;;;;;;;10.15;4.82;;;;;;;;;;4840891;29;20050;-48
2022/08/17 14:07:10;;;;;;;13.40;4.53;;;;;;;;;;4840660;29;20057;-45
2022/08/17 14:09:40;;;;;;;11.52;4.13;;;;;;;;;;4839705;29;20069;-45
2022/08/17 14:12:10;;;;;;;6.45;4.40;;;;;;;;;;4840252;29;20057;-46
2022/08/17 14:14:39;;;;;;;8.13;4.65;;;;;;;;;;4837707;29;20173;-50
2022/08/17 14:17:06;;;;;;;9.13;4.40;;;;;;;;;;4840304;29;20046;-45
2022/08/17 14:19:34;;;;;;;13.10;4.57;;;;;;;;;;4834270;29;20415;-48
2022/08/17 14:22:02;;;;;;;27.65;19.23;;;;;;;;;;4821888;29;20077;-45
2022/08/17 14:24:34;;;;;;;13.70;5.00;;;;;;;;;;4821052;29;20141;-43
2022/08/17 14:27:05;;;;;;;9.25;4.95;;;;;;;;;;4822187;29;20054;-42
2022/08/17 14:29:34;;;;;;;7.47;4.57;;;;;;;;;;4831834;29;20406;-43
2022/08/17 14:32:10;;;;;;;10.18;5.10;;;;;;;;;;4839409;29;20046;-43
2022/08/17 14:34:39;;;;;;;8.38;4.55;;;;;;;;;;4840171;29;20134;-45
2022/08/17 14:37:08;;;;;;;11.05;4.60;;;;;;;;;;4836980;29;20042;-45
2022/08/17 14:39:37;;;;;;;14.45;5.25;;;;;;;;;;4840351;29;20069;-47
2022/08/17 14:42:06;;;;;;;7.65;4.40;;;;;;;;;;4839506;29;20048;-46
2022/08/17 14:44:33;;;;;;;7.13;4.65;;;;;;;;;;4825561;29;20050;-49
2022/08/17 14:47:03;;;;;;;8.82;4.40;;;;;;;;;;4825346;29;20476;-41
2022/08/17 14:49:32;;;;;;;10.73;4.53;;;;;;;;;;4825567;29;20054;-41
2022/08/17 14:52:00;;;;;;;20.92;9.73;;;;;;;;;;4824867;29;20053;-42
2022/08/17 14:54:28;;;;;;;8.25;4.65;;;;;;;;;;4825104;29;20045;-45
2022/08/17 14:57:01;;;;;;;;;;;;;;;;;;4825802;29;20065;-45
2022/08/17 14:59:50;;;;;;;8.82;4.20;;;;;;;;;;4824973;29;20395;-50
2022/08/17 15:02:27;;;;;;;6.72;4.18;;;;;;;;;;4821908;29;20112;-47
2022/08/17 15:05:01;;;;;;;9.68;4.68;;;;;;;;;;4823713;29;20121;-47
2022/08/17 15:07:29;;;;;;;8.52;4.40;;;;;;;;;;4824677;29;20054;-49
2022/08/17 15:09:59;;;;;;;8.23;4.60;;;;;;;;;;4825127;29;20047;-45
2022/08/17 15:12:33;;;;;;;7.45;4.45;;;;;;;;;;4825254;29;20119;-47
2022/08/17 15:15:02;;;;;;;6.70;4.95;;;;;;;;;;4823462;29;20082;-46
2022/08/17 15:17:34;;;;;;;18.67;10.70;;;;;;;;;;4842478;29;20049;-60
2022/08/17 15:20:17;;;;;;;9.85;4.70;;;;;;;;;;4832269;29;20496;-50
2022/08/17 15:22:48;;;;;;;6.10;4.07;;;;;;;;;;4824691;29;20057;-47
2022/08/17 15:25:17;;;;;;;7.10;4.20;;;;;;;;;;4824825;29;20092;-47
2022/08/17 15:27:46;;;;;;;6.80;4.00;;;;;;;;;;4824778;29;20050;-46
2022/08/17 15:30:14;;;;;;;43.22;30.13;;;;;;;;;;4824781;29;20054;-45
2022/08/17 15:32:42;;;;;;;9.77;4.47;;;;;;;;;;4824897;29;20051;-44
2022/08/17 15:35:18;;;;;;;8.50;4.10;;;;;;;;;;4824588;29;20049;-44
2022/08/17 15:38:06;;;;;;;8.95;4.10;;;;;;;;;;4824726;29;20571;-48
2022/08/17 15:40:46;;;;;;;8.70;3.95;;;;;;;;;;4824440;29;20125;-45
2022/08/17 15:43:20;;;;;;;7.35;3.85;;;;;;;;;;4824525;29;20047;-48
2022/08/17 15:46:10;;;;;;;9.70;4.35;;;;;;;;;;4824558;29;20050;-45
2022/08/17 15:48:40;;;;;;;8.85;4.32;;;;;;;;;;4824133;29;20579;-47
2022/08/17 15:51:23;;;;;;;8.10;4.32;;;;;;;;;;4823595;29;20042;-46
2022/08/17 15:53:53;;;;;;;55.20;42.38;;;;;;;;;;4823668;29;20102;-44